sensor_id;sensor_type;location;lat;lon;timestamp;P1;durP1;ratioP1;P2;durP2;ratioP2
76854;SDS011;66343;44.588;33.450;2023-07-16T00:01:09;7.40;;;2.97;;
76854;SDS011;66343;44.588;33.450;2023-07-16T00:03:40;6.38;;;2.72;;
76854;SDS011;66343;44.588;33.450;2023-07-16T00:06:11;9.30;;;3.10;;
76854;SDS011;66343;44.588;33.450;2023-07-16T00:08:44;7.28;;;3.22;;
76854;SDS011;66343;44.588;33.450;2023-07-16T00:11:18;8.45;;;2.90;;
76854;SDS011;66343;44.588;33.450;2023-07-16T00:13:54;6.25;;;2.80;;
76854;SDS011;66343;44.588;33.450;2023-07-16T00:16:26;8.23;;;2.75;;
76854;SDS011;66343;44.588;33.450;2023-07-16T00:18:58;7.00;;;2.90;;
76854;SDS011;66343;44.588;33.450;2023-07-16T00:21:30;6.75;;;3.15;;
76854;SDS011;66343;44.588;33.450;2023-07-16T00:24:00;7.72;;;2.97;;
76854;SDS011;66343;44.588;33.450;2023-07-16T00:26:30;7.63;;;3.05;;
76854;SDS011;66343;44.588;33.450;2023-07-16T00:31:33;7.10;;;3.08;;
76854;SDS011;66343;44.588;33.450;2023-07-16T00:34:02;9.90;;;3.47;;
76854;SDS011;66343;44.588;33.450;2023-07-16T00:36:34;8.15;;;2.92;;
76854;SDS011;66343;44.588;33.450;2023-07-16T00:39:06;8.63;;;3.30;;
76854;SDS011;66343;44.588;33.450;2023-07-16T00:41:37;7.30;;;3.10;;
76854;SDS011;66343;44.588;33.450;2023-07-16T00:44:07;6.70;;;3.22;;
76854;SDS011;66343;44.588;33.450;2023-07-16T00:46:40;8.30;;;2.83;;
76854;SDS011;66343;44.588;33.450;2023-07-16T00:49:15;7.80;;;3.22;;
76854;SDS011;66343;44.588;33.450;2023-07-16T00:51:47;8.13;;;3.10;;
76854;SDS011;66343;44.588;33.450;2023-07-16T00:54:22;7.30;;;2.90;;
76854;SDS011;66343;44.588;33.450;2023-07-16T00:56:57;8.00;;;3.13;;
76854;SDS011;66343;44.588;33.450;2023-07-16T00:59:27;7.57;;;3.55;;
76854;SDS011;66343;44.588;33.450;2023-07-16T01:01:59;8.55;;;3.20;;
76854;SDS011;66343;44.588;33.450;2023-07-16T01:04:34;7.63;;;2.95;;
76854;SDS011;66343;44.588;33.450;2023-07-16T01:07:08;8.80;;;3.35;;
76854;SDS011;66343;44.588;33.450;2023-07-16T01:09:41;8.38;;;3.20;;
76854;SDS011;66343;44.588;33.450;2023-07-16T01:12:12;7.45;;;2.83;;
76854;SDS011;66343;44.588;33.450;2023-07-16T01:14:43;8.70;;;3.17;;
76854;SDS011;66343;44.588;33.450;2023-07-16T01:17:16;8.80;;;3.45;;
76854;SDS011;66343;44.588;33.450;2023-07-16T01:19:51;8.27;;;3.45;;
76854;SDS011;66343;44.588;33.450;2023-07-16T01:22:34;8.10;;;2.92;;
76854;SDS011;66343;44.588;33.450;2023-07-16T01:30:43;7.25;;;2.80;;
76854;SDS011;66343;44.588;33.450;2023-07-16T01:33:18;6.60;;;2.80;;
76854;SDS011;66343;44.588;33.450;2023-07-16T01:35:49;8.27;;;2.72;;
76854;SDS011;66343;44.588;33.450;2023-07-16T01:38:23;7.90;;;3.60;;
76854;SDS011;66343;44.588;33.450;2023-07-16T01:40:53;7.72;;;2.78;;
76854;SDS011;66343;44.588;33.450;2023-07-16T01:43:30;7.00;;;2.53;;
76854;SDS011;66343;44.588;33.450;2023-07-16T01:46:07;9.18;;;2.92;;
76854;SDS011;66343;44.588;33.450;2023-07-16T01:48:37;6.13;;;2.78;;
76854;SDS011;66343;44.588;33.450;2023-07-16T01:51:12;7.78;;;2.85;;
76854;SDS011;66343;44.588;33.450;2023-07-16T01:53:44;7.10;;;3.05;;
76854;SDS011;66343;44.588;33.450;2023-07-16T01:56:18;7.25;;;3.10;;
76854;SDS011;66343;44.588;33.450;2023-07-16T01:58:49;7.18;;;2.88;;
76854;SDS011;66343;44.588;33.450;2023-07-16T02:01:19;7.22;;;3.08;;
76854;SDS011;66343;44.588;33.450;2023-07-16T02:03:51;7.10;;;2.85;;
76854;SDS011;66343;44.588;33.450;2023-07-16T02:06:23;7.95;;;2.97;;
76854;SDS011;66343;44.588;33.450;2023-07-16T02:08:54;7.20;;;3.00;;
76854;SDS011;66343;44.588;33.450;2023-07-16T02:11:28;7.63;;;2.88;;
76854;SDS011;66343;44.588;33.450;2023-07-16T02:14:11;8.45;;;2.95;;
76854;SDS011;66343;44.588;33.450;2023-07-16T02:16:43;7.15;;;2.88;;
76854;SDS011;66343;44.588;33.450;2023-07-16T02:19:15;8.07;;;3.15;;
76854;SDS011;66343;44.588;33.450;2023-07-16T02:21:48;7.95;;;2.78;;
76854;SDS011;66343;44.588;33.450;2023-07-16T02:24:18;6.43;;;2.70;;
76854;SDS011;66343;44.588;33.450;2023-07-16T02:26:51;7.57;;;2.92;;
76854;SDS011;66343;44.588;33.450;2023-07-16T02:29:26;9.02;;;3.00;;
76854;SDS011;66343;44.588;33.450;2023-07-16T02:31:59;7.20;;;3.05;;
76854;SDS011;66343;44.588;33.450;2023-07-16T02:34:31;10.35;;;3.00;;
76854;SDS011;66343;44.588;33.450;2023-07-16T02:37:01;5.65;;;2.65;;
76854;SDS011;66343;44.588;33.450;2023-07-16T02:39:34;5.95;;;2.85;;
76854;SDS011;66343;44.588;33.450;2023-07-16T02:42:15;7.07;;;2.58;;
76854;SDS011;66343;44.588;33.450;2023-07-16T02:44:44;7.75;;;3.08;;
76854;SDS011;66343;44.588;33.450;2023-07-16T02:47:14;6.97;;;2.92;;
76854;SDS011;66343;44.588;33.450;2023-07-16T02:49:43;7.65;;;2.78;;
76854;SDS011;66343;44.588;33.450;2023-07-16T02:52:14;7.70;;;2.90;;
76854;SDS011;66343;44.588;33.450;2023-07-16T02:54:47;6.80;;;3.08;;
76854;SDS011;66343;44.588;33.450;2023-07-16T02:57:21;7.97;;;2.95;;
76854;SDS011;66343;44.588;33.450;2023-07-16T02:59:51;6.43;;;3.20;;
76854;SDS011;66343;44.588;33.450;2023-07-16T03:02:23;7.30;;;3.28;;
76854;SDS011;66343;44.588;33.450;2023-07-16T03:04:58;6.65;;;3.00;;
76854;SDS011;66343;44.588;33.450;2023-07-16T03:07:32;6.45;;;2.70;;
76854;SDS011;66343;44.588;33.450;2023-07-16T03:10:05;7.45;;;2.80;;
76854;SDS011;66343;44.588;33.450;2023-07-16T03:15:06;7.05;;;2.80;;
76854;SDS011;66343;44.588;33.450;2023-07-16T03:17:40;8.05;;;2.97;;
76854;SDS011;66343;44.588;33.450;2023-07-16T03:20:14;7.35;;;3.08;;
76854;SDS011;66343;44.588;33.450;2023-07-16T03:22:47;8.80;;;3.00;;
76854;SDS011;66343;44.588;33.450;2023-07-16T03:25:19;7.53;;;3.13;;
76854;SDS011;66343;44.588;33.450;2023-07-16T03:27:55;9.80;;;2.90;;
76854;SDS011;66343;44.588;33.450;2023-07-16T03:30:24;6.75;;;2.97;;
76854;SDS011;66343;44.588;33.450;2023-07-16T03:32:56;7.00;;;2.90;;
76854;SDS011;66343;44.588;33.450;2023-07-16T03:35:28;6.95;;;2.88;;
76854;SDS011;66343;44.588;33.450;2023-07-16T03:38:00;6.90;;;2.58;;
76854;SDS011;66343;44.588;33.450;2023-07-16T03:40:30;8.70;;;2.83;;
76854;SDS011;66343;44.588;33.450;2023-07-16T03:43:06;6.40;;;2.90;;
76854;SDS011;66343;44.588;33.450;2023-07-16T03:45:37;6.93;;;2.72;;
76854;SDS011;66343;44.588;33.450;2023-07-16T03:48:12;7.35;;;2.80;;
76854;SDS011;66343;44.588;33.450;2023-07-16T03:50:41;7.55;;;2.67;;
76854;SDS011;66343;44.588;33.450;2023-07-16T03:53:11;5.68;;;2.67;;
76854;SDS011;66343;44.588;33.450;2023-07-16T03:55:44;6.38;;;2.78;;
76854;SDS011;66343;44.588;33.450;2023-07-16T03:58:14;8.02;;;3.00;;
76854;SDS011;66343;44.588;33.450;2023-07-16T04:00:46;6.97;;;3.15;;
76854;SDS011;66343;44.588;33.450;2023-07-16T04:03:18;7.47;;;2.70;;
76854;SDS011;66343;44.588;33.450;2023-07-16T04:05:50;8.80;;;3.13;;
76854;SDS011;66343;44.588;33.450;2023-07-16T04:08:19;7.90;;;3.03;;
76854;SDS011;66343;44.588;33.450;2023-07-16T04:10:49;7.32;;;2.90;;
76854;SDS011;66343;44.588;33.450;2023-07-16T04:13:26;7.75;;;3.10;;
76854;SDS011;66343;44.588;33.450;2023-07-16T04:16:00;7.90;;;3.05;;
76854;SDS011;66343;44.588;33.450;2023-07-16T04:18:31;7.13;;;3.30;;
76854;SDS011;66343;44.588;33.450;2023-07-16T04:21:02;7.18;;;2.85;;
76854;SDS011;66343;44.588;33.450;2023-07-16T04:23:35;6.93;;;2.72;;
76854;SDS011;66343;44.588;33.450;2023-07-16T04:26:04;10.18;;;3.00;;
76854;SDS011;66343;44.588;33.450;2023-07-16T04:28:36;6.63;;;2.60;;
76854;SDS011;66343;44.588;33.450;2023-07-16T04:31:11;7.15;;;2.70;;
76854;SDS011;66343;44.588;33.450;2023-07-16T04:33:43;7.63;;;2.40;;
76854;SDS011;66343;44.588;33.450;2023-07-16T04:36:13;7.97;;;2.70;;
76854;SDS011;66343;44.588;33.450;2023-07-16T04:38:47;5.90;;;2.60;;
76854;SDS011;66343;44.588;33.450;2023-07-16T04:41:20;8.27;;;2.72;;
76854;SDS011;66343;44.588;33.450;2023-07-16T04:43:53;7.28;;;2.53;;
76854;SDS011;66343;44.588;33.450;2023-07-16T04:46:25;6.60;;;2.88;;
76854;SDS011;66343;44.588;33.450;2023-07-16T04:49:02;7.93;;;2.97;;
76854;SDS011;66343;44.588;33.450;2023-07-16T04:51:33;10.07;;;3.10;;
76854;SDS011;66343;44.588;33.450;2023-07-16T04:54:08;7.25;;;2.75;;
76854;SDS011;66343;44.588;33.450;2023-07-16T04:56:40;7.05;;;2.60;;
76854;SDS011;66343;44.588;33.450;2023-07-16T04:59:16;9.10;;;3.03;;
76854;SDS011;66343;44.588;33.450;2023-07-16T05:01:48;6.07;;;2.58;;
76854;SDS011;66343;44.588;33.450;2023-07-16T05:04:21;6.47;;;2.33;;
76854;SDS011;66343;44.588;33.450;2023-07-16T05:06:54;7.10;;;2.70;;
76854;SDS011;66343;44.588;33.450;2023-07-16T05:09:31;6.20;;;2.55;;
76854;SDS011;66343;44.588;33.450;2023-07-16T05:12:08;7.03;;;3.00;;
76854;SDS011;66343;44.588;33.450;2023-07-16T05:14:46;6.07;;;2.45;;
76854;SDS011;66343;44.588;33.450;2023-07-16T05:17:17;7.82;;;3.00;;
76854;SDS011;66343;44.588;33.450;2023-07-16T05:19:47;7.85;;;2.70;;
76854;SDS011;66343;44.588;33.450;2023-07-16T05:22:17;8.88;;;3.28;;
76854;SDS011;66343;44.588;33.450;2023-07-16T05:24:47;7.13;;;3.00;;
76854;SDS011;66343;44.588;33.450;2023-07-16T05:27:17;6.90;;;2.83;;
76854;SDS011;66343;44.588;33.450;2023-07-16T05:29:47;8.13;;;2.95;;
76854;SDS011;66343;44.588;33.450;2023-07-16T05:32:17;6.75;;;2.70;;
76854;SDS011;66343;44.588;33.450;2023-07-16T05:34:46;8.23;;;2.90;;
76854;SDS011;66343;44.588;33.450;2023-07-16T05:37:16;7.57;;;2.92;;
76854;SDS011;66343;44.588;33.450;2023-07-16T05:39:46;7.88;;;3.10;;
76854;SDS011;66343;44.588;33.450;2023-07-16T05:44:48;5.95;;;2.35;;
76854;SDS011;66343;44.588;33.450;2023-07-16T05:47:18;7.07;;;2.75;;
76854;SDS011;66343;44.588;33.450;2023-07-16T05:49:52;7.53;;;2.80;;
76854;SDS011;66343;44.588;33.450;2023-07-16T05:52:24;6.53;;;3.13;;
76854;SDS011;66343;44.588;33.450;2023-07-16T05:57:30;8.85;;;2.95;;
76854;SDS011;66343;44.588;33.450;2023-07-16T06:00:05;7.55;;;3.15;;
76854;SDS011;66343;44.588;33.450;2023-07-16T06:02:38;8.10;;;3.55;;
76854;SDS011;66343;44.588;33.450;2023-07-16T06:05:10;7.13;;;3.10;;
76854;SDS011;66343;44.588;33.450;2023-07-16T06:07:42;7.47;;;2.88;;
76854;SDS011;66343;44.588;33.450;2023-07-16T06:10:12;7.38;;;3.28;;
76854;SDS011;66343;44.588;33.450;2023-07-16T06:12:45;7.70;;;3.50;;
76854;SDS011;66343;44.588;33.450;2023-07-16T06:17:50;9.00;;;2.92;;
76854;SDS011;66343;44.588;33.450;2023-07-16T06:20:21;6.82;;;2.85;;
76854;SDS011;66343;44.588;33.450;2023-07-16T06:22:54;7.28;;;2.80;;
76854;SDS011;66343;44.588;33.450;2023-07-16T06:25:27;7.97;;;3.55;;
76854;SDS011;66343;44.588;33.450;2023-07-16T06:27:57;6.53;;;2.90;;
76854;SDS011;66343;44.588;33.450;2023-07-16T06:30:31;7.75;;;3.35;;
76854;SDS011;66343;44.588;33.450;2023-07-16T06:33:06;9.02;;;3.40;;
76854;SDS011;66343;44.588;33.450;2023-07-16T06:35:43;7.55;;;2.78;;
76854;SDS011;66343;44.588;33.450;2023-07-16T06:38:15;7.95;;;3.47;;
76854;SDS011;66343;44.588;33.450;2023-07-16T06:40:50;10.48;;;3.65;;
76854;SDS011;66343;44.588;33.450;2023-07-16T06:43:25;7.65;;;3.17;;
76854;SDS011;66343;44.588;33.450;2023-07-16T06:46:02;8.02;;;3.58;;
76854;SDS011;66343;44.588;33.450;2023-07-16T06:48:35;7.85;;;3.63;;
76854;SDS011;66343;44.588;33.450;2023-07-16T06:51:05;7.82;;;3.35;;
76854;SDS011;66343;44.588;33.450;2023-07-16T06:56:10;7.53;;;3.38;;
76854;SDS011;66343;44.588;33.450;2023-07-16T06:58:43;7.38;;;3.28;;
76854;SDS011;66343;44.588;33.450;2023-07-16T07:01:13;7.15;;;3.35;;
76854;SDS011;66343;44.588;33.450;2023-07-16T07:03:43;8.75;;;3.20;;
76854;SDS011;66343;44.588;33.450;2023-07-16T07:06:17;7.47;;;3.67;;
76854;SDS011;66343;44.588;33.450;2023-07-16T07:08:52;6.80;;;3.33;;
76854;SDS011;66343;44.588;33.450;2023-07-16T07:11:24;8.00;;;3.65;;
76854;SDS011;66343;44.588;33.450;2023-07-16T07:13:57;6.40;;;3.38;;
76854;SDS011;66343;44.588;33.450;2023-07-16T07:16:28;8.63;;;3.42;;
76854;SDS011;66343;44.588;33.450;2023-07-16T07:19:04;7.57;;;3.20;;
76854;SDS011;66343;44.588;33.450;2023-07-16T07:21:37;8.68;;;3.90;;
76854;SDS011;66343;44.588;33.450;2023-07-16T07:24:11;8.18;;;3.38;;
76854;SDS011;66343;44.588;33.450;2023-07-16T07:26:42;8.40;;;3.55;;
76854;SDS011;66343;44.588;33.450;2023-07-16T07:29:14;7.88;;;3.72;;
76854;SDS011;66343;44.588;33.450;2023-07-16T07:31:44;9.30;;;3.88;;
76854;SDS011;66343;44.588;33.450;2023-07-16T07:34:14;8.02;;;3.33;;
76854;SDS011;66343;44.588;33.450;2023-07-16T07:36:49;8.95;;;4.28;;
76854;SDS011;66343;44.588;33.450;2023-07-16T07:39:18;8.73;;;3.67;;
76854;SDS011;66343;44.588;33.450;2023-07-16T07:41:54;6.95;;;3.40;;
76854;SDS011;66343;44.588;33.450;2023-07-16T07:44:24;8.13;;;3.92;;
76854;SDS011;66343;44.588;33.450;2023-07-16T07:47:02;7.95;;;3.50;;
76854;SDS011;66343;44.588;33.450;2023-07-16T07:49:35;10.65;;;3.90;;
76854;SDS011;66343;44.588;33.450;2023-07-16T07:52:08;8.90;;;4.00;;
76854;SDS011;66343;44.588;33.450;2023-07-16T07:54:43;7.65;;;4.20;;
76854;SDS011;66343;44.588;33.450;2023-07-16T07:57:13;9.13;;;5.00;;
76854;SDS011;66343;44.588;33.450;2023-07-16T08:02:15;9.70;;;4.40;;
76854;SDS011;66343;44.588;33.450;2023-07-16T08:04:47;8.75;;;4.47;;
76854;SDS011;66343;44.588;33.450;2023-07-16T08:07:24;9.65;;;4.50;;
76854;SDS011;66343;44.588;33.450;2023-07-16T08:09:55;7.88;;;4.13;;
76854;SDS011;66343;44.588;33.450;2023-07-16T08:12:25;8.63;;;4.35;;
76854;SDS011;66343;44.588;33.450;2023-07-16T08:14:56;9.07;;;4.65;;
76854;SDS011;66343;44.588;33.450;2023-07-16T08:17:29;8.65;;;4.47;;
76854;SDS011;66343;44.588;33.450;2023-07-16T08:20:00;9.10;;;4.20;;
76854;SDS011;66343;44.588;33.450;2023-07-16T08:22:34;8.90;;;4.13;;
76854;SDS011;66343;44.588;33.450;2023-07-16T08:25:06;10.05;;;4.22;;
76854;SDS011;66343;44.588;33.450;2023-07-16T08:27:39;8.23;;;3.85;;
76854;SDS011;66343;44.588;33.450;2023-07-16T08:30:11;7.55;;;3.75;;
76854;SDS011;66343;44.588;33.450;2023-07-16T08:32:43;9.55;;;3.95;;
76854;SDS011;66343;44.588;33.450;2023-07-16T08:35:17;8.23;;;3.65;;
76854;SDS011;66343;44.588;33.450;2023-07-16T08:37:54;6.63;;;3.60;;
76854;SDS011;66343;44.588;33.450;2023-07-16T08:40:31;10.82;;;4.03;;
76854;SDS011;66343;44.588;33.450;2023-07-16T08:43:05;8.48;;;3.92;;
76854;SDS011;66343;44.588;33.450;2023-07-16T08:45:41;7.20;;;3.05;;
76854;SDS011;66343;44.588;33.450;2023-07-16T08:48:13;7.78;;;3.35;;
76854;SDS011;66343;44.588;33.450;2023-07-16T08:50:47;7.25;;;3.63;;
76854;SDS011;66343;44.588;33.450;2023-07-16T08:53:18;7.55;;;3.10;;
76854;SDS011;66343;44.588;33.450;2023-07-16T08:55:49;6.65;;;2.50;;
76854;SDS011;66343;44.588;33.450;2023-07-16T08:58:22;8.27;;;3.08;;
76854;SDS011;66343;44.588;33.450;2023-07-16T09:00:59;7.85;;;2.88;;
76854;SDS011;66343;44.588;33.450;2023-07-16T09:03:35;7.22;;;3.20;;
76854;SDS011;66343;44.588;33.450;2023-07-16T09:06:05;7.82;;;3.22;;
76854;SDS011;66343;44.588;33.450;2023-07-16T09:08:35;8.27;;;3.70;;
76854;SDS011;66343;44.588;33.450;2023-07-16T09:11:10;7.07;;;3.33;;
76854;SDS011;66343;44.588;33.450;2023-07-16T09:13:52;9.57;;;3.90;;
76854;SDS011;66343;44.588;33.450;2023-07-16T09:16:24;10.32;;;4.57;;
76854;SDS011;66343;44.588;33.450;2023-07-16T09:19:10;7.47;;;3.95;;
76854;SDS011;66343;44.588;33.450;2023-07-16T09:21:48;12.30;;;4.07;;
76854;SDS011;66343;44.588;33.450;2023-07-16T09:24:19;6.60;;;3.20;;
76854;SDS011;66343;44.588;33.450;2023-07-16T09:26:53;9.68;;;3.58;;
76854;SDS011;66343;44.588;33.450;2023-07-16T09:29:31;11.13;;;3.15;;
76854;SDS011;66343;44.588;33.450;2023-07-16T09:32:01;5.63;;;2.53;;
76854;SDS011;66343;44.588;33.450;2023-07-16T09:34:34;7.20;;;2.97;;
76854;SDS011;66343;44.588;33.450;2023-07-16T09:37:04;7.63;;;2.67;;
76854;SDS011;66343;44.588;33.450;2023-07-16T09:39:40;6.90;;;2.60;;
76854;SDS011;66343;44.588;33.450;2023-07-16T09:42:17;9.05;;;3.00;;
76854;SDS011;66343;44.588;33.450;2023-07-16T09:44:52;7.55;;;2.88;;
76854;SDS011;66343;44.588;33.450;2023-07-16T09:47:23;6.70;;;2.75;;
76854;SDS011;66343;44.588;33.450;2023-07-16T09:49:53;9.50;;;3.30;;
76854;SDS011;66343;44.588;33.450;2023-07-16T09:52:28;6.70;;;2.20;;
76854;SDS011;66343;44.588;33.450;2023-07-16T09:55:00;7.95;;;2.67;;
76854;SDS011;66343;44.588;33.450;2023-07-16T09:57:38;7.05;;;2.50;;
76854;SDS011;66343;44.588;33.450;2023-07-16T10:00:11;6.95;;;2.15;;
76854;SDS011;66343;44.588;33.450;2023-07-16T10:02:47;10.13;;;2.97;;
76854;SDS011;66343;44.588;33.450;2023-07-16T10:05:25;6.93;;;2.95;;
76854;SDS011;66343;44.588;33.450;2023-07-16T10:08:02;6.85;;;2.72;;
76854;SDS011;66343;44.588;33.450;2023-07-16T10:10:42;7.68;;;2.78;;
76854;SDS011;66343;44.588;33.450;2023-07-16T10:13:22;7.40;;;2.80;;
76854;SDS011;66343;44.588;33.450;2023-07-16T10:15:57;11.02;;;2.92;;
76854;SDS011;66343;44.588;33.450;2023-07-16T10:18:33;7.80;;;2.90;;
76854;SDS011;66343;44.588;33.450;2023-07-16T10:21:08;8.48;;;3.30;;
76854;SDS011;66343;44.588;33.450;2023-07-16T10:23:41;7.32;;;2.90;;
76854;SDS011;66343;44.588;33.450;2023-07-16T10:26:13;6.47;;;3.05;;
76854;SDS011;66343;44.588;33.450;2023-07-16T10:28:47;8.93;;;4.00;;
76854;SDS011;66343;44.588;33.450;2023-07-16T10:31:21;9.73;;;5.13;;
76854;SDS011;66343;44.588;33.450;2023-07-16T10:34:02;12.93;;;4.90;;
76854;SDS011;66343;44.588;33.450;2023-07-16T10:36:37;10.38;;;4.95;;
76854;SDS011;66343;44.588;33.450;2023-07-16T10:39:10;10.40;;;4.75;;
76854;SDS011;66343;44.588;33.450;2023-07-16T10:41:40;10.75;;;5.65;;
76854;SDS011;66343;44.588;33.450;2023-07-16T10:44:13;11.38;;;5.30;;
76854;SDS011;66343;44.588;33.450;2023-07-16T10:46:46;9.02;;;5.30;;
76854;SDS011;66343;44.588;33.450;2023-07-16T10:49:16;11.32;;;5.78;;
76854;SDS011;66343;44.588;33.450;2023-07-16T10:52:02;12.40;;;5.57;;
76854;SDS011;66343;44.588;33.450;2023-07-16T10:54:32;10.82;;;4.95;;
76854;SDS011;66343;44.588;33.450;2023-07-16T10:57:05;9.52;;;5.50;;
76854;SDS011;66343;44.588;33.450;2023-07-16T10:59:36;8.90;;;5.18;;
76854;SDS011;66343;44.588;33.450;2023-07-16T11:02:16;8.75;;;4.65;;
76854;SDS011;66343;44.588;33.450;2023-07-16T11:04:47;9.48;;;4.63;;
76854;SDS011;66343;44.588;33.450;2023-07-16T11:07:17;10.45;;;4.93;;
76854;SDS011;66343;44.588;33.450;2023-07-16T11:09:48;9.65;;;4.55;;
76854;SDS011;66343;44.588;33.450;2023-07-16T11:12:21;10.10;;;4.88;;
76854;SDS011;66343;44.588;33.450;2023-07-16T11:14:55;9.00;;;4.90;;
76854;SDS011;66343;44.588;33.450;2023-07-16T11:17:27;11.70;;;5.28;;
76854;SDS011;66343;44.588;33.450;2023-07-16T11:19:59;9.18;;;5.13;;
76854;SDS011;66343;44.588;33.450;2023-07-16T11:22:29;10.45;;;5.45;;
76854;SDS011;66343;44.588;33.450;2023-07-16T11:25:02;10.32;;;5.55;;
76854;SDS011;66343;44.588;33.450;2023-07-16T11:27:32;11.20;;;5.05;;
76854;SDS011;66343;44.588;33.450;2023-07-16T11:30:06;9.48;;;5.45;;
76854;SDS011;66343;44.588;33.450;2023-07-16T11:32:45;11.98;;;5.60;;
76854;SDS011;66343;44.588;33.450;2023-07-16T11:35:20;10.68;;;5.53;;
76854;SDS011;66343;44.588;33.450;2023-07-16T11:37:54;11.30;;;5.55;;
76854;SDS011;66343;44.588;33.450;2023-07-16T11:40:26;10.98;;;5.82;;
76854;SDS011;66343;44.588;33.450;2023-07-16T11:43:06;11.48;;;6.13;;
76854;SDS011;66343;44.588;33.450;2023-07-16T11:45:47;10.85;;;6.88;;
76854;SDS011;66343;44.588;33.450;2023-07-16T11:48:21;11.30;;;6.35;;
76854;SDS011;66343;44.588;33.450;2023-07-16T11:50:57;13.23;;;7.00;;
76854;SDS011;66343;44.588;33.450;2023-07-16T11:53:31;12.50;;;7.35;;
76854;SDS011;66343;44.588;33.450;2023-07-16T11:56:09;14.07;;;7.70;;
76854;SDS011;66343;44.588;33.450;2023-07-16T11:58:39;11.60;;;7.53;;
76854;SDS011;66343;44.588;33.450;2023-07-16T12:01:12;13.50;;;7.95;;
76854;SDS011;66343;44.588;33.450;2023-07-16T12:03:47;13.85;;;7.72;;
76854;SDS011;66343;44.588;33.450;2023-07-16T12:06:21;10.57;;;6.40;;
76854;SDS011;66343;44.588;33.450;2023-07-16T12:08:51;11.05;;;7.13;;
76854;SDS011;66343;44.588;33.450;2023-07-16T12:11:24;11.90;;;7.05;;
76854;SDS011;66343;44.588;33.450;2023-07-16T12:13:57;12.85;;;7.30;;
76854;SDS011;66343;44.588;33.450;2023-07-16T12:16:29;11.88;;;6.60;;
76854;SDS011;66343;44.588;33.450;2023-07-16T12:19:05;10.65;;;6.03;;
76854;SDS011;66343;44.588;33.450;2023-07-16T12:21:37;12.43;;;6.43;;
76854;SDS011;66343;44.588;33.450;2023-07-16T12:24:12;11.68;;;5.85;;
76854;SDS011;66343;44.588;33.450;2023-07-16T12:26:47;9.27;;;5.72;;
76854;SDS011;66343;44.588;33.450;2023-07-16T12:29:19;10.40;;;5.63;;
76854;SDS011;66343;44.588;33.450;2023-07-16T12:31:49;9.60;;;4.32;;
76854;SDS011;66343;44.588;33.450;2023-07-16T12:34:21;11.70;;;5.63;;
76854;SDS011;66343;44.588;33.450;2023-07-16T12:36:55;8.85;;;4.50;;
76854;SDS011;66343;44.588;33.450;2023-07-16T12:39:24;8.60;;;4.57;;
76854;SDS011;66343;44.588;33.450;2023-07-16T12:42:00;8.60;;;4.13;;
76854;SDS011;66343;44.588;33.450;2023-07-16T12:44:37;6.70;;;3.53;;
76854;SDS011;66343;44.588;33.450;2023-07-16T12:47:09;8.48;;;3.80;;
76854;SDS011;66343;44.588;33.450;2023-07-16T12:49:45;8.35;;;3.45;;
76854;SDS011;66343;44.588;33.450;2023-07-16T12:52:18;7.65;;;3.63;;
76854;SDS011;66343;44.588;33.450;2023-07-16T12:54:54;9.20;;;3.63;;
76854;SDS011;66343;44.588;33.450;2023-07-16T12:57:27;9.93;;;3.40;;
76854;SDS011;66343;44.588;33.450;2023-07-16T12:59:57;7.13;;;3.40;;
76854;SDS011;66343;44.588;33.450;2023-07-16T13:02:30;7.93;;;2.63;;
76854;SDS011;66343;44.588;33.450;2023-07-16T13:05:00;6.97;;;3.15;;
76854;SDS011;66343;44.588;33.450;2023-07-16T13:07:30;8.68;;;2.65;;
76854;SDS011;66343;44.588;33.450;2023-07-16T13:10:04;6.53;;;2.65;;
76854;SDS011;66343;44.588;33.450;2023-07-16T13:12:51;6.95;;;2.58;;
76854;SDS011;66343;44.588;33.450;2023-07-16T13:15:25;8.50;;;2.80;;
76854;SDS011;66343;44.588;33.450;2023-07-16T13:17:55;7.70;;;2.50;;
76854;SDS011;66343;44.588;33.450;2023-07-16T13:20:29;5.90;;;2.55;;
76854;SDS011;66343;44.588;33.450;2023-07-16T13:23:04;7.18;;;3.00;;
76854;SDS011;66343;44.588;33.450;2023-07-16T13:25:37;6.22;;;2.10;;
76854;SDS011;66343;44.588;33.450;2023-07-16T13:28:07;8.30;;;2.20;;
76854;SDS011;66343;44.588;33.450;2023-07-16T13:30:39;6.97;;;2.50;;
76854;SDS011;66343;44.588;33.450;2023-07-16T13:33:09;8.90;;;2.40;;
76854;SDS011;66343;44.588;33.450;2023-07-16T13:35:41;6.05;;;2.10;;
76854;SDS011;66343;44.588;33.450;2023-07-16T13:38:12;5.63;;;1.88;;
76854;SDS011;66343;44.588;33.450;2023-07-16T13:40:43;6.43;;;2.40;;
76854;SDS011;66343;44.588;33.450;2023-07-16T13:43:13;6.57;;;2.05;;
76854;SDS011;66343;44.588;33.450;2023-07-16T13:45:44;6.53;;;2.20;;
76854;SDS011;66343;44.588;33.450;2023-07-16T13:48:14;6.20;;;2.20;;
76854;SDS011;66343;44.588;33.450;2023-07-16T13:50:48;6.53;;;2.22;;
76854;SDS011;66343;44.588;33.450;2023-07-16T13:53:18;6.18;;;2.50;;
76854;SDS011;66343;44.588;33.450;2023-07-16T13:55:54;6.78;;;2.53;;
76854;SDS011;66343;44.588;33.450;2023-07-16T13:58:28;6.10;;;2.42;;
76854;SDS011;66343;44.588;33.450;2023-07-16T14:00:59;6.70;;;2.28;;
76854;SDS011;66343;44.588;33.450;2023-07-16T14:03:29;7.45;;;2.25;;
76854;SDS011;66343;44.588;33.450;2023-07-16T14:06:00;8.88;;;2.53;;
76854;SDS011;66343;44.588;33.450;2023-07-16T14:08:29;6.43;;;2.28;;
76854;SDS011;66343;44.588;33.450;2023-07-16T14:11:04;5.90;;;2.17;;
76854;SDS011;66343;44.588;33.450;2023-07-16T14:13:37;5.60;;;1.73;;
76854;SDS011;66343;44.588;33.450;2023-07-16T14:16:07;6.20;;;2.20;;
76854;SDS011;66343;44.588;33.450;2023-07-16T14:18:40;5.13;;;1.92;;
76854;SDS011;66343;44.588;33.450;2023-07-16T14:21:10;6.13;;;2.05;;
76854;SDS011;66343;44.588;33.450;2023-07-16T14:23:40;6.60;;;1.85;;
76854;SDS011;66343;44.588;33.450;2023-07-16T14:26:13;4.75;;;1.88;;
76854;SDS011;66343;44.588;33.450;2023-07-16T14:28:43;7.53;;;2.00;;
76854;SDS011;66343;44.588;33.450;2023-07-16T14:31:14;12.20;;;5.95;;
76854;SDS011;66343;44.588;33.450;2023-07-16T14:33:43;7.88;;;2.42;;
76854;SDS011;66343;44.588;33.450;2023-07-16T14:36:20;5.03;;;2.00;;
76854;SDS011;66343;44.588;33.450;2023-07-16T14:38:55;7.90;;;2.15;;
76854;SDS011;66343;44.588;33.450;2023-07-16T14:41:27;6.35;;;2.10;;
76854;SDS011;66343;44.588;33.450;2023-07-16T14:44:00;7.53;;;2.20;;
76854;SDS011;66343;44.588;33.450;2023-07-16T14:46:32;5.13;;;1.98;;
76854;SDS011;66343;44.588;33.450;2023-07-16T14:49:06;5.85;;;2.00;;
76854;SDS011;66343;44.588;33.450;2023-07-16T14:51:36;6.75;;;2.25;;
76854;SDS011;66343;44.588;33.450;2023-07-16T14:56:44;7.82;;;2.30;;
76854;SDS011;66343;44.588;33.450;2023-07-16T14:59:20;7.05;;;2.40;;
76854;SDS011;66343;44.588;33.450;2023-07-16T15:01:55;6.93;;;2.15;;
76854;SDS011;66343;44.588;33.450;2023-07-16T15:04:28;5.60;;;2.00;;
76854;SDS011;66343;44.588;33.450;2023-07-16T15:06:58;6.22;;;2.35;;
76854;SDS011;66343;44.588;33.450;2023-07-16T15:09:33;5.53;;;2.15;;
76854;SDS011;66343;44.588;33.450;2023-07-16T15:12:11;6.78;;;2.33;;
76854;SDS011;66343;44.588;33.450;2023-07-16T15:14:44;6.43;;;2.05;;
76854;SDS011;66343;44.588;33.450;2023-07-16T15:17:17;5.53;;;2.17;;
76854;SDS011;66343;44.588;33.450;2023-07-16T15:19:55;6.38;;;2.20;;
76854;SDS011;66343;44.588;33.450;2023-07-16T15:22:29;5.68;;;2.20;;
76854;SDS011;66343;44.588;33.450;2023-07-16T15:25:05;6.32;;;2.33;;
76854;SDS011;66343;44.588;33.450;2023-07-16T15:27:38;5.25;;;2.28;;
76854;SDS011;66343;44.588;33.450;2023-07-16T15:30:08;6.07;;;2.30;;
76854;SDS011;66343;44.588;33.450;2023-07-16T15:35:10;6.63;;;2.35;;